Terminal Aerodrome Forecast
Issued by NWS

Home | Current Version | Previous Version | Text Only | Print | Product List | Glossary On
Versions: 1 2 3 4 5 6 7 8 9 10 11 12 13 14 15 16 17 18
000
FTUS43 KMPX 022001 AAB
TAFRNH
TAF AMD
KRNH 022001Z 0220/0318 10007KT P6SM -RA BKN005 OVC030
     FM022100 11007KT P6SM SCT010 BKN035
      TEMPO 0221/0223 BKN010 BKN035
     FM030000 11005KT P6SM SCT040
     FM030500 11004KT 5SM BR FEW008
     FM030700 11004KT 2SM BR OVC006
     FM031500 13006KT P6SM SCT008 BKN015=

USA.gov is the U.S. government's official web portal to all federal, state and local government web resources and services.